Time;durP1;ratioP1;P1;durP2;ratioP2;P2;SDS_P1;SDS_P2;PMS_P1;PMS_P2;Temp;Humidity;BMP_temperature;BMP_pressure;BME280_temperature;BME280_humidity;BME280_pressure;Samples;Min_cycle;Max_cycle;Signal;HPM_P1;HPM_P2
2022/03/01 00:01:24;;;;;;;;;34.33;30.67;;;;;;;;4987826;28;28464;-84
2022/03/01 00:03:49;;;;;;;;;30.25;29.00;;;;;;;;4988378;28;28436;-84
2022/03/01 00:06:14;;;;;;;;;25.67;25.67;;;;;;;;4988887;28;28572;-84
2022/03/01 00:08:40;;;;;;;;;43.67;37.00;;;;;;;;4998206;28;28231;-84
2022/03/01 00:11:05;;;;;;;;;41.00;36.00;;;;;;;;5008349;28;28654;-84
2022/03/01 00:13:30;;;;;;;;;41.00;34.50;;;;;;;;5008252;28;28487;-84
2022/03/01 00:15:55;;;;;;;;;30.33;28.00;;;;;;;;4990688;28;28600;-84
2022/03/01 00:18:20;;;;;;;;;34.00;30.67;;;;;;;;4998447;28;28715;-84
2022/03/01 00:20:46;;;;;;;;;30.75;30.00;;;;;;;;4988923;28;28631;-84
2022/03/01 00:23:11;;;;;;;;;33.00;33.00;;;;;;;;4970789;28;30850;-84
2022/03/01 00:25:37;;;;;;;;;38.00;34.00;;;;;;;;4988652;28;28300;-84
2022/03/01 00:28:02;;;;;;;;;34.40;33.60;;;;;;;;4988673;28;28369;-84
2022/03/01 00:30:27;;;;;;;;;38.00;34.67;;;;;;;;4988709;28;28236;-84
2022/03/01 00:32:53;;;;;;;;;36.67;30.33;;;;;;;;4990541;28;29043;-84
2022/03/01 00:35:18;;;;;;;;;36.25;30.50;;;;;;;;4991880;28;28424;-84
2022/03/01 00:37:43;;;;;;;;;42.00;37.00;;;;;;;;4991864;28;28334;-84
2022/03/01 00:40:09;;;;;;;;;38.67;35.67;;;;;;;;4992083;28;28267;-84
2022/03/01 00:42:34;;;;;;;;;33.00;31.00;;;;;;;;4991556;28;28485;-84
2022/03/01 00:44:59;;;;;;;;;32.00;28.33;;;;;;;;4991832;28;28228;-84
2022/03/01 00:47:24;;;;;;;;;30.25;30.25;;;;;;;;4991783;28;28320;-83
2022/03/01 00:49:50;;;;;;;;;40.33;35.00;;;;;;;;4991946;28;28322;-84
2022/03/01 00:52:15;;;;;;;;;32.00;28.33;;;;;;;;4991430;28;28251;-84
2022/03/01 00:54:40;;;;;;;;;30.67;30.67;;;;;;;;4991625;28;28386;-84
2022/03/01 00:57:05;;;;;;;;;37.00;35.67;;;;;;;;4991734;28;28274;-84
2022/03/01 00:59:30;;;;;;;;;28.67;28.67;;;;;;;;4991947;28;28521;-84
2022/03/01 01:01:56;;;;;;;;;31.33;31.00;;;;;;;;4991630;28;28658;-84
2022/03/01 01:04:21;;;;;;;;;30.50;29.25;;;;;;;;5001280;28;28421;-84
2022/03/01 01:06:46;;;;;;;;;31.00;30.33;;;;;;;;5011329;28;28322;-84
2022/03/01 01:09:14;;;;;;;;;38.67;31.33;;;;;;;;5011620;28;28100;-84
2022/03/01 01:11:39;;;;;;;;;35.50;35.00;;;;;;;;5010848;28;28446;-84
2022/03/01 01:14:04;;;;;;;;;33.00;29.75;;;;;;;;5011210;28;28514;-84
2022/03/01 01:16:29;;;;;;;;;25.50;25.50;;;;;;;;5011354;28;28352;-84
2022/03/01 01:18:55;;;;;;;;;28.25;28.25;;;;;;;;5001736;28;28638;-84
2022/03/01 01:21:21;;;;;;;;;31.00;29.00;;;;;;;;4991059;28;28374;-84
2022/03/01 01:23:46;;;;;;;;;30.00;28.00;;;;;;;;4991391;28;28322;-84
2022/03/01 01:26:11;;;;;;;;;35.50;30.50;;;;;;;;4991468;28;28279;-83
2022/03/01 01:28:37;;;;;;;;;30.00;27.33;;;;;;;;4991177;28;28257;-84
2022/03/01 01:31:02;;;;;;;;;28.00;28.00;;;;;;;;4990981;28;28667;-84
2022/03/01 01:33:27;;;;;;;;;33.00;32.67;;;;;;;;4990561;28;28282;-84
2022/03/01 01:35:53;;;;;;;;;30.00;28.25;;;;;;;;4991014;28;28448;-84
2022/03/01 01:38:18;;;;;;;;;34.50;32.75;;;;;;;;4991233;28;28382;-84
2022/03/01 01:40:43;;;;;;;;;34.50;31.00;;;;;;;;4990738;28;29643;-84
2022/03/01 01:43:08;;;;;;;;;36.50;32.50;;;;;;;;4990306;28;27952;-84
2022/03/01 01:45:33;;;;;;;;;34.67;29.67;;;;;;;;4990990;28;28256;-84
2022/03/01 01:47:59;;;;;;;;;40.33;36.00;;;;;;;;4990858;28;28414;-84
2022/03/01 01:50:25;;;;;;;;;39.25;36.50;;;;;;;;4990888;28;28804;-84
2022/03/01 01:52:51;;;;;;;;;40.33;36.33;;;;;;;;4990648;28;28368;-84
2022/03/01 01:55:17;;;;;;;;;38.00;34.00;;;;;;;;4990830;28;28401;-83
2022/03/01 01:57:43;;;;;;;;;45.50;38.25;;;;;;;;4990630;28;28359;-84
2022/03/01 02:00:09;;;;;;;;;39.00;38.00;;;;;;;;4990355;28;28882;-83
2022/03/01 02:02:35;;;;;;;;;32.80;32.80;;;;;;;;4991978;28;27952;-84
2022/03/01 02:05:00;;;;;;;;;32.75;31.00;;;;;;;;4990422;28;28391;-84
2022/03/01 02:07:25;;;;;;;;;38.50;36.00;;;;;;;;4988734;28;28568;-83
2022/03/01 02:09:50;;;;;;;;;31.67;31.00;;;;;;;;4990166;28;28385;-84
2022/03/01 02:12:16;;;;;;;;;50.33;40.00;;;;;;;;4990196;28;28419;-84
2022/03/01 02:14:41;;;;;;;;;34.75;32.50;;;;;;;;4998507;28;28332;-84
2022/03/01 02:17:08;;;;;;;;;41.75;35.50;;;;;;;;4970793;28;28522;-84
2022/03/01 02:19:34;;;;;;;;;38.40;34.20;;;;;;;;4977680;28;29591;-84
2022/03/01 02:21:59;;;;;;;;;43.50;35.75;;;;;;;;4990279;28;28365;-84
2022/03/01 02:24:25;;;;;;;;;41.67;35.00;;;;;;;;4990160;28;28251;-83
2022/03/01 02:26:54;;;;;;;;;40.20;35.40;;;;;;;;4989899;28;28437;-83
2022/03/01 02:29:19;;;;;;;;;42.00;35.20;;;;;;;;4990003;28;28432;-84
2022/03/01 02:31:44;;;;;;;;;34.33;34.33;;;;;;;;4989913;28;28417;-84
2022/03/01 02:34:09;;;;;;;;;30.67;30.67;;;;;;;;4989996;28;28497;-83
2022/03/01 02:36:35;;;;;;;;;37.00;31.00;;;;;;;;4990164;28;28384;-84
2022/03/01 02:39:01;;;;;;;;;33.25;33.00;;;;;;;;4989547;28;28369;-84
2022/03/01 02:41:26;;;;;;;;;38.80;38.20;;;;;;;;4988809;28;28500;-83
2022/03/01 02:43:51;;;;;;;;;33.00;32.00;;;;;;;;4988987;28;28548;-84
2022/03/01 02:46:17;;;;;;;;;41.33;37.00;;;;;;;;4988818;28;28673;-84
2022/03/01 02:48:42;;;;;;;;;36.25;31.50;;;;;;;;4988897;28;28540;-83
2022/03/01 02:51:07;;;;;;;;;43.25;36.75;;;;;;;;4988910;28;28567;-84
2022/03/01 02:53:34;;;;;;;;;36.67;33.33;;;;;;;;4988686;28;28445;-84
2022/03/01 02:55:59;;;;;;;;;45.00;37.25;;;;;;;;4988803;28;28689;-84
2022/03/01 02:58:24;;;;;;;;;41.00;36.50;;;;;;;;4989701;28;28844;-84
2022/03/01 03:00:50;;;;;;;;;35.00;32.50;;;;;;;;4989423;28;28360;-83
2022/03/01 03:03:15;;;;;;;;;35.67;33.67;;;;;;;;4989799;28;28322;-84
2022/03/01 03:05:40;;;;;;;;;39.25;35.00;;;;;;;;4989598;28;28372;-83
2022/03/01 03:08:07;;;;;;;;;33.00;32.00;;;;;;;;4989410;28;28395;-83
2022/03/01 03:10:33;;;;;;;;;36.50;33.00;;;;;;;;4989064;28;28445;-84
2022/03/01 03:12:58;;;;;;;;;35.75;34.75;;;;;;;;4989664;28;28413;-84
2022/03/01 03:15:24;;;;;;;;;42.60;36.60;;;;;;;;4989675;28;28779;-82
2022/03/01 03:17:49;;;;;;;;;41.67;36.00;;;;;;;;4989494;28;28428;-83
2022/03/01 03:20:14;;;;;;;;;36.75;34.00;;;;;;;;4989296;28;28452;-83
2022/03/01 03:22:39;;;;;;;;;36.33;35.00;;;;;;;;4989503;28;28440;-83
2022/03/01 03:25:05;;;;;;;;;41.50;37.00;;;;;;;;4971610;28;28435;-82
2022/03/01 03:27:31;;;;;;;;;44.67;36.67;;;;;;;;4989174;28;28448;-82
2022/03/01 03:29:56;;;;;;;;;39.50;36.00;;;;;;;;4989293;28;28373;-82
2022/03/01 03:32:21;;;;;;;;;38.33;34.67;;;;;;;;4989077;28;28477;-82
2022/03/01 03:34:47;;;;;;;;;32.00;32.00;;;;;;;;4989488;28;28122;-82
2022/03/01 03:37:13;;;;;;;;;35.00;33.50;;;;;;;;4989049;28;29461;-83
2022/03/01 03:39:38;;;;;;;;;33.75;30.75;;;;;;;;4988498;28;28397;-83
2022/03/01 03:42:04;;;;;;;;;36.00;34.50;;;;;;;;4991486;28;28569;-82
2022/03/01 03:44:29;;;;;;;;;32.50;30.75;;;;;;;;4989155;28;28321;-83
2022/03/01 03:46:54;;;;;;;;;40.50;33.50;;;;;;;;4988950;28;28743;-82
2022/03/01 03:49:20;;;;;;;;;38.00;35.33;;;;;;;;4988679;28;28465;-82
2022/03/01 03:51:45;;;;;;;;;39.33;36.00;;;;;;;;4989074;28;27767;-83
2022/03/01 03:54:11;;;;;;;;;43.50;35.75;;;;;;;;4988643;28;28358;-82
2022/03/01 03:56:36;;;;;;;;;42.25;36.25;;;;;;;;4988618;28;28228;-82
2022/03/01 03:59:01;;;;;;;;;47.00;39.00;;;;;;;;4988938;28;28406;-82
2022/03/01 04:01:26;;;;;;;;;40.67;36.33;;;;;;;;4989021;28;28460;-82
2022/03/01 04:03:51;;;;;;;;;38.33;35.00;;;;;;;;4989007;28;28518;-83
2022/03/01 04:06:17;;;;;;;;;38.50;33.25;;;;;;;;4990108;28;28959;-83
2022/03/01 04:08:42;;;;;;;;;38.67;37.00;;;;;;;;4991923;28;28813;-83
2022/03/01 04:11:07;;;;;;;;;40.00;35.00;;;;;;;;4992028;28;28703;-83
2022/03/01 04:13:32;;;;;;;;;30.00;30.00;;;;;;;;4991502;28;28481;-82
2022/03/01 04:15:58;;;;;;;;;37.67;36.33;;;;;;;;4992051;28;28426;-82
2022/03/01 04:18:23;;;;;;;;;30.50;30.50;;;;;;;;4992103;28;28451;-82
2022/03/01 04:20:48;;;;;;;;;32.75;30.50;;;;;;;;4992186;28;27931;-82
2022/03/01 04:23:14;;;;;;;;;29.00;29.00;;;;;;;;4992171;28;27898;-83
2022/03/01 04:25:39;;;;;;;;;32.00;32.00;;;;;;;;4992109;28;28705;-82
2022/03/01 04:28:04;;;;;;;;;30.50;30.50;;;;;;;;4991676;28;28364;-82
2022/03/01 04:30:29;;;;;;;;;33.00;25.67;;;;;;;;4991975;28;28409;-82
2022/03/01 04:32:55;;;;;;;;;32.00;32.00;;;;;;;;4992214;28;28431;-82
2022/03/01 04:35:20;;;;;;;;;37.50;35.00;;;;;;;;4991824;28;28863;-83
2022/03/01 04:37:45;;;;;;;;;36.25;32.75;;;;;;;;4991879;28;28429;-83
2022/03/01 04:40:12;;;;;;;;;33.25;30.75;;;;;;;;4991914;28;28310;-82
2022/03/01 04:42:38;;;;;;;;;33.75;31.75;;;;;;;;4991458;28;28496;-82
2022/03/01 04:45:05;;;;;;;;;40.50;35.25;;;;;;;;4991550;28;28311;-83
2022/03/01 04:47:30;;;;;;;;;39.00;36.25;;;;;;;;4991373;28;28644;-82
2022/03/01 04:49:55;;;;;;;;;38.00;36.00;;;;;;;;4992078;28;28390;-82
2022/03/01 04:52:21;;;;;;;;;38.25;36.25;;;;;;;;4992077;28;28351;-82
2022/03/01 04:54:46;;;;;;;;;39.33;34.67;;;;;;;;4991693;28;29171;-82
2022/03/01 04:57:11;;;;;;;;;37.67;35.00;;;;;;;;4991710;28;28470;-82
2022/03/01 04:59:36;;;;;;;;;33.75;30.75;;;;;;;;4991557;28;28322;-83
2022/03/01 05:02:02;;;;;;;;;42.33;36.67;;;;;;;;4991049;28;28488;-82
2022/03/01 05:04:27;;;;;;;;;40.00;37.00;;;;;;;;4991445;28;28517;-82
2022/03/01 05:06:53;;;;;;;;;38.25;35.75;;;;;;;;4991134;28;28423;-82
2022/03/01 05:09:20;;;;;;;;;40.25;36.00;;;;;;;;4972385;28;28766;-82
2022/03/01 05:11:46;;;;;;;;;40.50;36.00;;;;;;;;5005513;28;28390;-82
2022/03/01 05:14:11;;;;;;;;;32.00;30.67;;;;;;;;4990539;28;29261;-82
2022/03/01 05:16:37;;;;;;;;;34.75;28.75;;;;;;;;4991111;28;28331;-82
2022/03/01 05:19:02;;;;;;;;;34.75;32.75;;;;;;;;4990264;28;27774;-82
2022/03/01 05:21:29;;;;;;;;;34.00;32.67;;;;;;;;4990986;28;28548;-82
2022/03/01 05:23:54;;;;;;;;;41.40;36.20;;;;;;;;4990857;28;29816;-82
2022/03/01 05:26:19;;;;;;;;;34.50;30.50;;;;;;;;4990709;28;28267;-83
2022/03/01 05:28:44;;;;;;;;;41.00;34.75;;;;;;;;4990934;28;28445;-82
2022/03/01 05:31:10;;;;;;;;;36.33;34.67;;;;;;;;4990910;28;28248;-82
2022/03/01 05:33:35;;;;;;;;;34.75;31.50;;;;;;;;4991172;28;28497;-82
2022/03/01 05:36:01;;;;;;;;;35.00;33.25;;;;;;;;4990389;28;28049;-82
2022/03/01 05:38:26;;;;;;;;;38.33;33.00;;;;;;;;5004247;28;28469;-82
2022/03/01 05:40:51;;;;;;;;;36.67;35.33;;;;;;;;5005812;28;28312;-82
2022/03/01 05:43:16;;;;;;;;;32.33;30.00;;;;;;;;4990778;28;29559;-82
2022/03/01 05:45:42;;;;;;;;;30.67;29.00;;;;;;;;4991084;28;28350;-82
2022/03/01 05:48:07;;;;;;;;;36.00;32.33;;;;;;;;4990257;28;28641;-82
2022/03/01 05:50:32;;;;;;;;;31.75;27.50;;;;;;;;4990538;28;28379;-81
2022/03/01 05:52:58;;;;;;;;;33.00;30.67;;;;;;;;4990472;28;28584;-82
2022/03/01 05:55:23;;;;;;;;;29.00;29.00;;;;;;;;4990038;28;28496;-81
2022/03/01 05:57:48;;;;;;;;;32.33;30.00;;;;;;;;4990759;28;28454;-85
2022/03/01 06:00:15;;;;;;;;;34.00;32.33;;;;;;;;4989300;28;28580;-83
2022/03/01 06:02:41;;;;;;;;;32.00;30.00;;;;;;;;4971155;28;29249;-81
2022/03/01 06:05:06;;;;;;;;;34.60;31.20;;;;;;;;4976636;28;28506;-85
2022/03/01 06:07:32;;;;;;;;;35.75;31.00;;;;;;;;4972947;28;28398;-83
2022/03/01 06:09:57;;;;;;;;;35.25;34.00;;;;;;;;4990657;28;28474;-82
2022/03/01 06:12:22;;;;;;;;;32.33;29.00;;;;;;;;4989852;28;28648;-81
2022/03/01 06:14:47;;;;;;;;;36.33;31.67;;;;;;;;4990674;28;28359;-82
2022/03/01 06:17:13;;;;;;;;;29.50;29.25;;;;;;;;4989734;28;28468;-81
2022/03/01 06:19:38;;;;;;;;;32.50;30.25;;;;;;;;4990607;28;28760;-82
2022/03/01 06:22:04;;;;;;;;;38.33;28.67;;;;;;;;4990317;28;28289;-80
2022/03/01 06:24:30;;;;;;;;;32.75;30.25;;;;;;;;4990724;28;28515;-81
2022/03/01 06:26:55;;;;;;;;;27.75;25.25;;;;;;;;4990090;28;28298;-81
2022/03/01 06:29:20;;;;;;;;;36.50;33.25;;;;;;;;4990352;28;28323;-81
2022/03/01 06:31:45;;;;;;;;;28.25;28.25;;;;;;;;4990044;28;28625;-81
2022/03/01 06:34:10;;;;;;;;;29.00;26.67;;;;;;;;4990292;28;28307;-81
2022/03/01 06:36:36;;;;;;;;;32.00;32.00;;;;;;;;4990184;28;28247;-82
2022/03/01 06:39:01;;;;;;;;;43.67;37.33;;;;;;;;4990302;28;28398;-81
2022/03/01 06:41:27;;;;;;;;;35.00;34.00;;;;;;;;4989812;28;29321;-82
2022/03/01 06:43:52;;;;;;;;;31.00;28.67;;;;;;;;4989760;28;28433;-81
2022/03/01 06:46:17;;;;;;;;;31.00;31.00;;;;;;;;4990251;28;28419;-82
2022/03/01 06:48:43;;;;;;;;;36.00;35.00;;;;;;;;4989997;28;27931;-82
2022/03/01 06:51:08;;;;;;;;;35.75;30.25;;;;;;;;4989998;28;28413;-82
2022/03/01 06:53:36;;;;;;;;;31.00;29.50;;;;;;;;4989786;28;28380;-81
2022/03/01 06:56:02;;;;;;;;;37.00;33.00;;;;;;;;4989694;28;28431;-81
2022/03/01 06:58:27;;;;;;;;;39.75;37.00;;;;;;;;4989903;28;28437;-81
2022/03/01 07:00:53;;;;;;;;;30.00;30.00;;;;;;;;4990980;28;28390;-79
2022/03/01 07:03:18;;;;;;;;;37.25;31.75;;;;;;;;4989558;28;28366;-82
2022/03/01 07:05:44;;;;;;;;;29.25;29.25;;;;;;;;4989493;28;28388;-81
2022/03/01 07:08:09;;;;;;;;;35.40;31.40;;;;;;;;4989522;28;28534;-81
2022/03/01 07:10:35;;;;;;;;;38.00;33.00;;;;;;;;4988022;28;29138;-80
2022/03/01 07:13:01;;;;;;;;;40.20;31.60;;;;;;;;4989092;28;28002;-81
2022/03/01 07:15:26;;;;;;;;;31.00;31.00;;;;;;;;4989454;28;28428;-80
2022/03/01 07:17:52;;;;;;;;;36.00;31.00;;;;;;;;4989585;28;28389;-81
2022/03/01 07:20:17;;;;;;;;;37.75;36.25;;;;;;;;4988408;28;28370;-84
2022/03/01 07:22:42;;;;;;;;;38.33;34.00;;;;;;;;4988873;28;28586;-81
2022/03/01 07:25:07;;;;;;;;;35.67;34.00;;;;;;;;4989339;28;28806;-83
2022/03/01 07:27:33;;;;;;;;;32.50;28.50;;;;;;;;4989526;28;28494;-82
2022/03/01 07:29:59;;;;;;;;;36.33;32.67;;;;;;;;4971423;28;29794;-82
2022/03/01 07:32:24;;;;;;;;;37.25;34.50;;;;;;;;4988965;28;28436;-82
2022/03/01 07:34:49;;;;;;;;;34.75;33.25;;;;;;;;4989054;28;28364;-82
2022/03/01 07:37:15;;;;;;;;;38.00;35.75;;;;;;;;4989222;28;28468;-82
2022/03/01 07:39:40;;;;;;;;;35.00;32.50;;;;;;;;4988883;28;29292;-82
2022/03/01 07:42:05;;;;;;;;;33.25;31.75;;;;;;;;4988250;28;28465;-82
2022/03/01 07:44:31;;;;;;;;;31.25;30.50;;;;;;;;4988791;28;28282;-82
2022/03/01 07:46:56;;;;;;;;;36.75;32.25;;;;;;;;4988944;28;28411;-82
2022/03/01 07:49:21;;;;;;;;;39.00;35.75;;;;;;;;4988776;28;28523;-82
2022/03/01 07:51:47;;;;;;;;;31.50;28.00;;;;;;;;4989016;28;28383;-81
2022/03/01 07:54:12;;;;;;;;;30.00;29.00;;;;;;;;4988924;28;28464;-82
2022/03/01 07:56:39;;;;;;;;;39.33;32.33;;;;;;;;4988862;28;28341;-82
2022/03/01 07:59:05;;;;;;;;;33.25;29.25;;;;;;;;4988805;28;28537;-82
2022/03/01 08:01:30;;;;;;;;;32.00;32.00;;;;;;;;4988781;28;28430;-82
2022/03/01 08:03:55;;;;;;;;;37.00;33.67;;;;;;;;4988745;28;28374;-82
2022/03/01 08:06:20;;;;;;;;;40.75;35.00;;;;;;;;4988608;28;28237;-82
2022/03/01 08:08:46;;;;;;;;;42.50;35.50;;;;;;;;4988544;28;28366;-82
2022/03/01 08:11:11;;;;;;;;;42.50;35.50;;;;;;;;4988714;28;28221;-82
2022/03/01 08:13:37;;;;;;;;;39.25;35.50;;;;;;;;4988712;28;28287;-82
2022/03/01 08:16:03;;;;;;;;;33.25;33.00;;;;;;;;4988864;28;28511;-82
2022/03/01 08:18:28;;;;;;;;;36.80;35.00;;;;;;;;4988228;28;28970;-82
2022/03/01 08:20:54;;;;;;;;;34.75;33.00;;;;;;;;4988497;28;28334;-82
2022/03/01 08:23:19;;;;;;;;;38.67;32.67;;;;;;;;4988604;28;28286;-82
2022/03/01 08:25:45;;;;;;;;;44.33;37.33;;;;;;;;4988542;28;28440;-82
2022/03/01 08:28:12;;;;;;;;;40.40;35.20;;;;;;;;4988334;28;29211;-82
2022/03/01 08:30:37;;;;;;;;;36.50;32.00;;;;;;;;4988633;28;28463;-82
2022/03/01 08:33:03;;;;;;;;;41.00;36.00;;;;;;;;4987372;28;28382;-82
2022/03/01 08:35:28;;;;;;;;;41.50;35.25;;;;;;;;5001105;28;28299;-82
2022/03/01 08:37:54;;;;;;;;;39.33;35.33;;;;;;;;4995143;28;28541;-82
2022/03/01 08:40:21;;;;;;;;;45.00;36.33;;;;;;;;4987457;28;28247;-82
2022/03/01 08:42:46;;;;;;;;;41.00;33.25;;;;;;;;4988451;28;28554;-82
2022/03/01 08:45:11;;;;;;;;;38.75;34.75;;;;;;;;4983664;28;28567;-82
2022/03/01 08:47:37;;;;;;;;;39.00;35.00;;;;;;;;4988362;28;28476;-82
2022/03/01 08:50:03;;;;;;;;;41.00;36.00;;;;;;;;4988303;28;28398;-82
2022/03/01 08:52:28;;;;;;;;;33.50;33.25;;;;;;;;4988669;28;28322;-81
2022/03/01 08:54:53;;;;;;;;;36.00;32.67;;;;;;;;4991459;28;28456;-82
2022/03/01 08:57:19;;;;;;;;;33.75;29.50;;;;;;;;4991473;28;29515;-82
2022/03/01 08:59:44;;;;;;;;;31.00;29.00;;;;;;;;4991579;28;28449;-82
2022/03/01 09:02:10;;;;;;;;;38.67;35.33;;;;;;;;4991486;28;28350;-82
2022/03/01 09:04:35;;;;;;;;;38.00;34.75;;;;;;;;4991561;28;28486;-82
2022/03/01 09:07:03;;;;;;;;;31.67;31.33;;;;;;;;4991178;28;28490;-82
2022/03/01 09:09:29;;;;;;;;;36.00;29.00;;;;;;;;4991082;28;28596;-82
2022/03/01 09:11:54;;;;;;;;;30.25;30.25;;;;;;;;4991332;28;28528;-82
2022/03/01 09:14:19;;;;;;;;;34.33;34.33;;;;;;;;5001466;28;28449;-81
2022/03/01 09:16:44;;;;;;;;;40.00;35.00;;;;;;;;4994372;28;29102;-80
2022/03/01 09:19:10;;;;;;;;;34.00;30.00;;;;;;;;5003915;28;28403;-82
2022/03/01 09:21:36;;;;;;;;;44.75;37.50;;;;;;;;5009654;28;28390;-83
2022/03/01 09:24:01;;;;;;;;;36.50;34.75;;;;;;;;5002466;28;28413;-82
2022/03/01 09:26:26;;;;;;;;;41.00;36.75;;;;;;;;4994569;28;29133;-82
2022/03/01 09:28:51;;;;;;;;;37.50;34.00;;;;;;;;4991572;28;28476;-80
2022/03/01 09:31:17;;;;;;;;;37.75;33.25;;;;;;;;4989702;28;28416;-82
2022/03/01 09:33:45;;;;;;;;;32.00;32.00;;;;;;;;5002342;28;28560;-80
2022/03/01 09:36:11;;;;;;;;;35.75;32.00;;;;;;;;4999169;28;28568;-78
2022/03/01 09:38:36;;;;;;;;;34.25;29.50;;;;;;;;4991948;28;28507;-79
2022/03/01 09:41:01;;;;;;;;;32.75;32.25;;;;;;;;5010094;28;28385;-78
2022/03/01 09:43:26;;;;;;;;;38.00;34.75;;;;;;;;5009457;28;27901;-79
2022/03/01 09:45:52;;;;;;;;;35.25;32.00;;;;;;;;5007455;28;28435;-79
2022/03/01 09:48:17;;;;;;;;;36.00;31.00;;;;;;;;5009328;28;28059;-80
2022/03/01 09:50:45;;;;;;;;;41.75;34.00;;;;;;;;5008993;28;28437;-78
2022/03/01 09:53:10;;;;;;;;;35.60;32.60;;;;;;;;5010103;28;28889;-79
2022/03/01 09:55:35;;;;;;;;;38.75;33.75;;;;;;;;5002762;28;28525;-79
2022/03/01 09:58:00;;;;;;;;;36.50;34.50;;;;;;;;4989942;28;28281;-80
2022/03/01 10:00:26;;;;;;;;;35.00;32.00;;;;;;;;5006572;28;28459;-79
2022/03/01 10:02:55;;;;;;;;;35.00;31.33;;;;;;;;4990008;28;28434;-79
2022/03/01 10:05:30;;;;;;;;;37.50;34.25;;;;;;;;4989024;28;28538;-79
2022/03/01 10:08:04;;;;;;;;;37.20;33.60;;;;;;;;4989985;28;28501;-79
2022/03/01 10:10:35;;;;;;;;;30.80;29.00;;;;;;;;4989748;28;28982;-78
2022/03/01 10:13:00;;;;;;;;;34.00;33.00;;;;;;;;4989737;28;28506;-78
2022/03/01 10:15:27;;;;;;;;;32.33;32.00;;;;;;;;4989766;28;29786;-79
2022/03/01 10:17:52;;;;;;;;;30.00;28.40;;;;;;;;4989671;28;28994;-79
2022/03/01 10:20:18;;;;;;;;;32.67;30.00;;;;;;;;4989876;28;28475;-79
2022/03/01 10:22:44;;;;;;;;;33.00;31.80;;;;;;;;4989595;28;28435;-80
2022/03/01 10:25:10;;;;;;;;;38.75;36.00;;;;;;;;4989585;28;28455;-80
2022/03/01 10:27:35;;;;;;;;;34.33;32.33;;;;;;;;4989527;28;28417;-80
2022/03/01 10:30:01;;;;;;;;;33.33;33.00;;;;;;;;4989636;28;28167;-80
2022/03/01 10:32:26;;;;;;;;;34.40;31.60;;;;;;;;4989567;28;28782;-80
2022/03/01 10:34:59;;;;;;;;;28.00;28.00;;;;;;;;4989140;28;28648;-80
2022/03/01 10:37:34;;;;;;;;;35.50;29.00;;;;;;;;4989347;28;28029;-79
2022/03/01 10:40:12;;;;;;;;;31.40;31.20;;;;;;;;4989542;28;28750;-80
2022/03/01 10:42:37;;;;;;;;;37.80;33.60;;;;;;;;4989262;28;28369;-80
2022/03/01 10:45:03;;;;;;;;;36.00;33.33;;;;;;;;4989159;28;28365;-80
2022/03/01 10:47:28;;;;;;;;;32.60;31.60;;;;;;;;4989028;28;28491;-80
2022/03/01 10:50:00;;;;;;;;;36.33;33.00;;;;;;;;4985245;28;29084;-79
2022/03/01 10:52:31;;;;;;;;;37.75;32.75;;;;;;;;4984319;28;28842;-79
2022/03/01 10:54:56;;;;;;;;;38.40;34.00;;;;;;;;5009146;28;28749;-80
2022/03/01 10:57:22;;;;;;;;;33.67;30.67;;;;;;;;5009136;28;28488;-80
2022/03/01 10:59:48;;;;;;;;;33.50;30.75;;;;;;;;5009070;28;28417;-80
2022/03/01 11:02:16;;;;;;;;;33.25;31.75;;;;;;;;5001462;28;28515;-80
2022/03/01 11:04:41;;;;;;;;;31.25;31.25;;;;;;;;4989177;28;28520;-80
2022/03/01 11:07:07;;;;;;;;;34.00;30.00;;;;;;;;4988617;28;28395;-79
2022/03/01 11:09:33;;;;;;;;;33.00;30.00;;;;;;;;4989401;28;28387;-79
2022/03/01 11:12:00;;;;;;;;;30.75;29.50;;;;;;;;4999017;28;28484;-80
2022/03/01 11:14:27;;;;;;;;;34.00;32.33;;;;;;;;5008697;28;28567;-80
2022/03/01 11:17:01;;;;;;;;;37.00;35.00;;;;;;;;5004971;28;28488;-80
2022/03/01 11:19:47;;;;;;;;;39.00;29.50;;;;;;;;5008819;28;28475;-80
2022/03/01 11:22:24;;;;;;;;;35.00;32.00;;;;;;;;4947985;28;28566;-81
2022/03/01 11:24:49;;;;;;;;;28.60;27.40;;;;;;;;4940155;28;29219;-82
2022/03/01 11:27:18;;;;;;;;;30.50;29.50;;;;;;;;4928391;28;28476;-79
2022/03/01 11:29:43;;;;;;;;;38.00;32.25;;;;;;;;4928452;28;28498;-80
2022/03/01 11:32:13;;;;;;;;;36.00;33.33;;;;;;;;4952850;28;28489;-79
2022/03/01 11:34:39;;;;;;;;;32.25;32.25;;;;;;;;4964738;28;28538;-80
2022/03/01 11:37:11;;;;;;;;;33.50;30.50;;;;;;;;4966114;28;28646;-80
2022/03/01 11:39:36;;;;;;;;;37.20;32.00;;;;;;;;4947634;28;28418;-80
2022/03/01 11:42:06;;;;;;;;;33.75;33.00;;;;;;;;4947809;28;28711;-79
2022/03/01 11:44:33;;;;;;;;;31.00;30.00;;;;;;;;4962238;28;28449;-80
2022/03/01 11:47:02;;;;;;;;;31.75;30.25;;;;;;;;4960562;28;28489;-80
2022/03/01 11:49:32;;;;;;;;;32.40;28.60;;;;;;;;4948482;28;28759;-81
2022/03/01 11:51:58;;;;;;;;;35.40;32.80;;;;;;;;4947418;28;28747;-81
2022/03/01 11:54:30;;;;;;;;;34.00;30.00;;;;;;;;4955996;28;29377;-81
2022/03/01 11:56:57;;;;;;;;;37.00;33.20;;;;;;;;4966711;28;28580;-81
2022/03/01 11:59:22;;;;;;;;;31.00;30.00;;;;;;;;4988466;28;28429;-81
2022/03/01 12:01:49;;;;;;;;;37.50;34.00;;;;;;;;5008342;28;28400;-81
2022/03/01 12:04:19;;;;;;;;;38.00;34.50;;;;;;;;5001988;28;28471;-81
2022/03/01 12:06:45;;;;;;;;;34.75;32.00;;;;;;;;4998463;28;28380;-81
2022/03/01 12:09:11;;;;;;;;;30.50;30.50;;;;;;;;5008005;28;28495;-81
2022/03/01 12:11:40;;;;;;;;;39.50;36.50;;;;;;;;4991375;28;28887;-81
2022/03/01 12:14:05;;;;;;;;;39.00;34.00;;;;;;;;4988052;28;28361;-81
2022/03/01 12:16:31;;;;;;;;;34.00;34.00;;;;;;;;4988123;28;28574;-81
2022/03/01 12:19:11;;;;;;;;;39.67;36.00;;;;;;;;4987844;28;28514;-81
2022/03/01 12:21:37;;;;;;;;;36.25;35.00;;;;;;;;4988505;28;28471;-80
2022/03/01 12:24:03;;;;;;;;;37.20;33.80;;;;;;;;4987912;28;28523;-80
2022/03/01 12:26:29;;;;;;;;;34.80;32.20;;;;;;;;4988469;28;28476;-81
2022/03/01 12:28:57;;;;;;;;;33.20;31.00;;;;;;;;4991655;28;28445;-80
2022/03/01 12:31:25;;;;;;;;;31.80;29.80;;;;;;;;4991203;28;28600;-80
2022/03/01 12:33:51;;;;;;;;;34.00;31.50;;;;;;;;4991376;28;28484;-81
2022/03/01 12:36:33;;;;;;;;;36.50;33.00;;;;;;;;4991290;28;28365;-81
2022/03/01 12:39:00;;;;;;;;;36.25;32.25;;;;;;;;4991561;28;28512;-80
2022/03/01 12:41:26;;;;;;;;;34.67;31.67;;;;;;;;4991532;28;28532;-80
2022/03/01 12:43:52;;;;;;;;;30.67;30.67;;;;;;;;4991032;28;28572;-80
2022/03/01 12:46:17;;;;;;;;;35.00;31.20;;;;;;;;4990751;28;28305;-80
2022/03/01 12:48:43;;;;;;;;;28.67;27.67;;;;;;;;4991426;28;28674;-81
2022/03/01 12:51:08;;;;;;;;;33.50;29.00;;;;;;;;4991408;28;28307;-81
2022/03/01 12:53:34;;;;;;;;;30.00;28.67;;;;;;;;4991134;28;28735;-81
2022/03/01 12:55:59;;;;;;;;;32.00;32.00;;;;;;;;4989811;28;28350;-81
2022/03/01 12:58:27;;;;;;;;;38.00;33.50;;;;;;;;4991105;28;28662;-81
2022/03/01 13:00:52;;;;;;;;;36.25;32.25;;;;;;;;4990919;28;28628;-82
2022/03/01 13:03:28;;;;;;;;;36.33;33.33;;;;;;;;4990860;28;28509;-81
2022/03/01 13:06:05;;;;;;;;;33.60;32.20;;;;;;;;4990781;28;28319;-80
2022/03/01 13:08:33;;;;;;;;;27.00;27.00;;;;;;;;4990992;28;28479;-81
2022/03/01 13:10:58;;;;;;;;;30.67;27.67;;;;;;;;4993995;28;28527;-79
2022/03/01 13:13:33;;;;;;;;;33.00;31.33;;;;;;;;4997201;28;28938;-80
2022/03/01 13:16:02;;;;;;;;;36.75;32.75;;;;;;;;5007438;28;28435;-80
2022/03/01 13:18:28;;;;;;;;;39.40;34.00;;;;;;;;5009699;28;28921;-80
2022/03/01 13:20:53;;;;;;;;;37.00;34.00;;;;;;;;5009874;28;28320;-80
2022/03/01 13:23:26;;;;;;;;;32.00;31.00;;;;;;;;5010249;28;28520;-80
2022/03/01 13:25:51;;;;;;;;;32.40;30.60;;;;;;;;5006326;28;28518;-80
2022/03/01 13:28:16;;;;;;;;;42.25;32.50;;;;;;;;5007122;28;28567;-80
2022/03/01 13:30:41;;;;;;;;;31.75;27.75;;;;;;;;5006324;28;28423;-80
2022/03/01 13:33:09;;;;;;;;;34.67;32.33;;;;;;;;4990261;28;28330;-79
2022/03/01 13:35:35;;;;;;;;;31.40;31.40;;;;;;;;4990522;28;28499;-79
2022/03/01 13:38:01;;;;;;;;;32.20;27.20;;;;;;;;4991914;28;28476;-80
2022/03/01 13:40:27;;;;;;;;;30.40;28.40;;;;;;;;5009921;28;28451;-80
2022/03/01 13:43:03;;;;;;;;;34.00;30.25;;;;;;;;5009489;28;28456;-80
2022/03/01 13:45:30;;;;;;;;;34.60;30.80;;;;;;;;5010005;28;28412;-80
2022/03/01 13:47:55;;;;;;;;;32.00;30.00;;;;;;;;5007827;28;28846;-80
2022/03/01 13:50:21;;;;;;;;;33.33;32.67;;;;;;;;5005503;28;28560;-79
2022/03/01 13:52:51;;;;;;;;;26.25;26.25;;;;;;;;4991104;28;28718;-80
2022/03/01 13:55:22;;;;;;;;;34.75;31.25;;;;;;;;4989519;28;28275;-80
2022/03/01 13:57:49;;;;;;;;;38.25;35.25;;;;;;;;4992779;28;28706;-80
2022/03/01 14:00:16;;;;;;;;;34.60;32.00;;;;;;;;4993913;28;28699;-79
2022/03/01 14:02:55;;;;;;;;;32.50;32.50;;;;;;;;4972300;28;29602;-79
2022/03/01 14:05:21;;;;;;;;;29.25;28.25;;;;;;;;4972744;28;28700;-80
2022/03/01 14:08:06;;;;;;;;;25.67;25.67;;;;;;;;4989970;28;28424;-80
2022/03/01 14:10:32;;;;;;;;;33.00;30.75;;;;;;;;4984766;28;28493;-80